sensor_id;sensor_type;location;lat;lon;timestamp;P1;durP1;ratioP1;P2;durP2;ratioP2
34695;SDS011;20918;51.138;17.370;2023-12-22T00:00:50;11.60;;;2.60;;
34695;SDS011;20918;51.138;17.370;2023-12-22T00:03:51;12.90;;;2.40;;
34695;SDS011;20918;51.138;17.370;2023-12-22T00:06:52;15.00;;;3.00;;
34695;SDS011;20918;51.138;17.370;2023-12-22T00:12:54;13.70;;;2.60;;
34695;SDS011;20918;51.138;17.370;2023-12-22T00:15:55;7.50;;;2.80;;
34695;SDS011;20918;51.138;17.370;2023-12-22T00:21:57;13.80;;;3.10;;
34695;SDS011;20918;51.138;17.370;2023-12-22T00:24:58;13.00;;;2.80;;
34695;SDS011;20918;51.138;17.370;2023-12-22T00:27:59;11.50;;;2.60;;
34695;SDS011;20918;51.138;17.370;2023-12-22T00:31:07;11.00;;;3.10;;
34695;SDS011;20918;51.138;17.370;2023-12-22T00:34:08;14.40;;;3.10;;
34695;SDS011;20918;51.138;17.370;2023-12-22T00:37:09;15.80;;;3.60;;
34695;SDS011;20918;51.138;17.370;2023-12-22T00:40:12;18.80;;;3.20;;
34695;SDS011;20918;51.138;17.370;2023-12-22T00:43:13;9.60;;;2.60;;
34695;SDS011;20918;51.138;17.370;2023-12-22T00:52:35;16.30;;;3.30;;
34695;SDS011;20918;51.138;17.370;2023-12-22T00:55:36;16.80;;;3.40;;
34695;SDS011;20918;51.138;17.370;2023-12-22T00:58:39;13.20;;;3.40;;
34695;SDS011;20918;51.138;17.370;2023-12-22T01:01:40;10.40;;;2.70;;
34695;SDS011;20918;51.138;17.370;2023-12-22T01:04:42;10.30;;;2.50;;
34695;SDS011;20918;51.138;17.370;2023-12-22T01:07:52;16.90;;;3.70;;
34695;SDS011;20918;51.138;17.370;2023-12-22T01:10:53;13.20;;;2.70;;
34695;SDS011;20918;51.138;17.370;2023-12-22T01:13:54;21.20;;;3.80;;
34695;SDS011;20918;51.138;17.370;2023-12-22T01:16:55;17.20;;;3.20;;
34695;SDS011;20918;51.138;17.370;2023-12-22T01:20:12;12.20;;;2.90;;
34695;SDS011;20918;51.138;17.370;2023-12-22T01:23:13;17.90;;;3.00;;
34695;SDS011;20918;51.138;17.370;2023-12-22T01:26:25;17.20;;;3.90;;
34695;SDS011;20918;51.138;17.370;2023-12-22T01:29:26;10.90;;;2.80;;
34695;SDS011;20918;51.138;17.370;2023-12-22T01:32:32;12.30;;;2.90;;
34695;SDS011;20918;51.138;17.370;2023-12-22T01:35:53;10.10;;;3.00;;
34695;SDS011;20918;51.138;17.370;2023-12-22T01:39:03;16.00;;;3.20;;
34695;SDS011;20918;51.138;17.370;2023-12-22T01:42:06;17.30;;;2.90;;
34695;SDS011;20918;51.138;17.370;2023-12-22T01:45:10;11.90;;;2.60;;
34695;SDS011;20918;51.138;17.370;2023-12-22T01:48:14;11.00;;;2.90;;
34695;SDS011;20918;51.138;17.370;2023-12-22T01:51:16;13.70;;;3.10;;
34695;SDS011;20918;51.138;17.370;2023-12-22T01:54:20;13.80;;;3.40;;
34695;SDS011;20918;51.138;17.370;2023-12-22T02:01:17;19.20;;;3.40;;
34695;SDS011;20918;51.138;17.370;2023-12-22T02:04:22;11.90;;;3.60;;
34695;SDS011;20918;51.138;17.370;2023-12-22T02:07:27;14.40;;;3.40;;
34695;SDS011;20918;51.138;17.370;2023-12-22T02:10:31;19.00;;;3.90;;
34695;SDS011;20918;51.138;17.370;2023-12-22T02:13:44;12.60;;;2.40;;
34695;SDS011;20918;51.138;17.370;2023-12-22T02:17:10;14.10;;;3.40;;
34695;SDS011;20918;51.138;17.370;2023-12-22T02:20:46;13.20;;;3.00;;
34695;SDS011;20918;51.138;17.370;2023-12-22T02:23:49;14.70;;;3.20;;
34695;SDS011;20918;51.138;17.370;2023-12-22T02:27:09;17.20;;;3.30;;
34695;SDS011;20918;51.138;17.370;2023-12-22T02:33:59;12.70;;;3.00;;
34695;SDS011;20918;51.138;17.370;2023-12-22T02:37:26;22.40;;;4.40;;
34695;SDS011;20918;51.138;17.370;2023-12-22T02:40:29;11.20;;;2.60;;
34695;SDS011;20918;51.138;17.370;2023-12-22T02:43:31;11.70;;;3.10;;
34695;SDS011;20918;51.138;17.370;2023-12-22T02:46:33;9.40;;;2.20;;
34695;SDS011;20918;51.138;17.370;2023-12-22T02:49:34;12.20;;;3.00;;
34695;SDS011;20918;51.138;17.370;2023-12-22T02:52:37;8.00;;;2.50;;
34695;SDS011;20918;51.138;17.370;2023-12-22T02:58:41;8.30;;;2.20;;
34695;SDS011;20918;51.138;17.370;2023-12-22T03:01:42;9.20;;;2.20;;
34695;SDS011;20918;51.138;17.370;2023-12-22T03:07:43;9.60;;;1.80;;
34695;SDS011;20918;51.138;17.370;2023-12-22T03:10:44;10.80;;;2.20;;
34695;SDS011;20918;51.138;17.370;2023-12-22T03:13:45;7.00;;;2.00;;
34695;SDS011;20918;51.138;17.370;2023-12-22T03:16:48;10.80;;;2.90;;
34695;SDS011;20918;51.138;17.370;2023-12-22T03:19:48;10.50;;;2.30;;
34695;SDS011;20918;51.138;17.370;2023-12-22T03:22:49;6.90;;;2.20;;
34695;SDS011;20918;51.138;17.370;2023-12-22T03:25:50;11.20;;;2.30;;
34695;SDS011;20918;51.138;17.370;2023-12-22T03:31:51;10.40;;;2.10;;
34695;SDS011;20918;51.138;17.370;2023-12-22T03:34:52;10.80;;;2.60;;
34695;SDS011;20918;51.138;17.370;2023-12-22T03:37:53;11.40;;;2.10;;
34695;SDS011;20918;51.138;17.370;2023-12-22T03:40:54;10.40;;;2.00;;
34695;SDS011;20918;51.138;17.370;2023-12-22T03:44:16;14.60;;;2.90;;
34695;SDS011;20918;51.138;17.370;2023-12-22T03:47:15;9.70;;;2.60;;
34695;SDS011;20918;51.138;17.370;2023-12-22T03:53:17;11.00;;;2.60;;
34695;SDS011;20918;51.138;17.370;2023-12-22T03:56:17;8.10;;;2.00;;
34695;SDS011;20918;51.138;17.370;2023-12-22T03:59:22;8.40;;;2.20;;
34695;SDS011;20918;51.138;17.370;2023-12-22T04:02:22;8.50;;;2.00;;
34695;SDS011;20918;51.138;17.370;2023-12-22T04:05:23;11.90;;;2.20;;
34695;SDS011;20918;51.138;17.370;2023-12-22T04:08:24;8.10;;;2.10;;
34695;SDS011;20918;51.138;17.370;2023-12-22T04:11:25;11.40;;;2.40;;
34695;SDS011;20918;51.138;17.370;2023-12-22T04:14:25;9.50;;;3.20;;
34695;SDS011;20918;51.138;17.370;2023-12-22T04:17:26;14.10;;;3.50;;
34695;SDS011;20918;51.138;17.370;2023-12-22T04:20:30;8.30;;;2.70;;
34695;SDS011;20918;51.138;17.370;2023-12-22T04:23:31;5.30;;;2.30;;
34695;SDS011;20918;51.138;17.370;2023-12-22T04:26:32;8.10;;;2.00;;
34695;SDS011;20918;51.138;17.370;2023-12-22T04:32:36;11.70;;;2.90;;
34695;SDS011;20918;51.138;17.370;2023-12-22T04:35:36;8.30;;;2.50;;
34695;SDS011;20918;51.138;17.370;2023-12-22T04:38:37;4.50;;;1.90;;
34695;SDS011;20918;51.138;17.370;2023-12-22T04:41:41;12.00;;;2.40;;
34695;SDS011;20918;51.138;17.370;2023-12-22T04:44:45;11.20;;;2.40;;
34695;SDS011;20918;51.138;17.370;2023-12-22T04:47:46;11.70;;;2.70;;
34695;SDS011;20918;51.138;17.370;2023-12-22T04:50:47;14.40;;;2.60;;
34695;SDS011;20918;51.138;17.370;2023-12-22T04:57:08;12.90;;;2.60;;
34695;SDS011;20918;51.138;17.370;2023-12-22T05:03:13;15.70;;;2.60;;
34695;SDS011;20918;51.138;17.370;2023-12-22T05:06:14;16.00;;;2.80;;
34695;SDS011;20918;51.138;17.370;2023-12-22T05:09:15;15.90;;;2.90;;
34695;SDS011;20918;51.138;17.370;2023-12-22T05:12:16;11.00;;;2.30;;
34695;SDS011;20918;51.138;17.370;2023-12-22T05:15:17;14.50;;;2.80;;
34695;SDS011;20918;51.138;17.370;2023-12-22T05:21:18;9.90;;;2.60;;
34695;SDS011;20918;51.138;17.370;2023-12-22T05:24:20;14.50;;;3.10;;
34695;SDS011;20918;51.138;17.370;2023-12-22T05:27:23;8.70;;;2.30;;
34695;SDS011;20918;51.138;17.370;2023-12-22T05:30:31;14.00;;;2.50;;
34695;SDS011;20918;51.138;17.370;2023-12-22T05:36:35;9.30;;;2.20;;
34695;SDS011;20918;51.138;17.370;2023-12-22T05:39:38;16.50;;;2.50;;
34695;SDS011;20918;51.138;17.370;2023-12-22T05:42:39;9.50;;;2.60;;
34695;SDS011;20918;51.138;17.370;2023-12-22T05:45:43;11.70;;;2.90;;
34695;SDS011;20918;51.138;17.370;2023-12-22T05:48:43;10.30;;;2.80;;
34695;SDS011;20918;51.138;17.370;2023-12-22T05:51:53;12.80;;;2.90;;
34695;SDS011;20918;51.138;17.370;2023-12-22T05:55:00;16.60;;;2.70;;
34695;SDS011;20918;51.138;17.370;2023-12-22T05:58:03;11.90;;;2.90;;
34695;SDS011;20918;51.138;17.370;2023-12-22T06:01:13;15.10;;;2.50;;
34695;SDS011;20918;51.138;17.370;2023-12-22T06:04:18;10.00;;;2.80;;
34695;SDS011;20918;51.138;17.370;2023-12-22T06:07:40;12.50;;;2.40;;
34695;SDS011;20918;51.138;17.370;2023-12-22T06:11:23;8.90;;;2.40;;
34695;SDS011;20918;51.138;17.370;2023-12-22T06:14:30;10.90;;;2.40;;
34695;SDS011;20918;51.138;17.370;2023-12-22T06:17:31;8.90;;;2.50;;
34695;SDS011;20918;51.138;17.370;2023-12-22T06:20:37;8.30;;;2.10;;
34695;SDS011;20918;51.138;17.370;2023-12-22T06:26:39;9.90;;;2.60;;
34695;SDS011;20918;51.138;17.370;2023-12-22T06:29:45;9.70;;;3.00;;
34695;SDS011;20918;51.138;17.370;2023-12-22T06:32:46;14.00;;;2.60;;
34695;SDS011;20918;51.138;17.370;2023-12-22T06:35:49;12.80;;;2.30;;
34695;SDS011;20918;51.138;17.370;2023-12-22T06:38:53;14.30;;;2.90;;
34695;SDS011;20918;51.138;17.370;2023-12-22T06:41:58;10.00;;;2.60;;
34695;SDS011;20918;51.138;17.370;2023-12-22T06:48:02;6.90;;;2.20;;
34695;SDS011;20918;51.138;17.370;2023-12-22T06:51:03;12.80;;;2.70;;
34695;SDS011;20918;51.138;17.370;2023-12-22T06:54:04;7.50;;;3.20;;
34695;SDS011;20918;51.138;17.370;2023-12-22T07:00:08;6.90;;;2.30;;
34695;SDS011;20918;51.138;17.370;2023-12-22T07:03:09;12.70;;;3.00;;
34695;SDS011;20918;51.138;17.370;2023-12-22T07:06:10;9.10;;;2.70;;
34695;SDS011;20918;51.138;17.370;2023-12-22T07:12:18;10.50;;;2.90;;
34695;SDS011;20918;51.138;17.370;2023-12-22T07:15:19;16.90;;;2.20;;
34695;SDS011;20918;51.138;17.370;2023-12-22T07:18:23;7.30;;;2.30;;
34695;SDS011;20918;51.138;17.370;2023-12-22T07:21:25;8.60;;;2.00;;
34695;SDS011;20918;51.138;17.370;2023-12-22T07:24:26;10.40;;;2.40;;
34695;SDS011;20918;51.138;17.370;2023-12-22T07:30:27;7.20;;;2.10;;
34695;SDS011;20918;51.138;17.370;2023-12-22T07:33:28;7.50;;;2.70;;
34695;SDS011;20918;51.138;17.370;2023-12-22T07:39:30;9.90;;;2.40;;
34695;SDS011;20918;51.138;17.370;2023-12-22T07:45:31;9.40;;;2.50;;
34695;SDS011;20918;51.138;17.370;2023-12-22T07:48:33;11.00;;;2.50;;
34695;SDS011;20918;51.138;17.370;2023-12-22T07:51:33;8.90;;;2.80;;
34695;SDS011;20918;51.138;17.370;2023-12-22T07:54:37;5.40;;;2.00;;
34695;SDS011;20918;51.138;17.370;2023-12-22T07:57:38;8.30;;;2.00;;
34695;SDS011;20918;51.138;17.370;2023-12-22T08:00:44;7.70;;;2.20;;
34695;SDS011;20918;51.138;17.370;2023-12-22T08:03:47;12.30;;;2.70;;
34695;SDS011;20918;51.138;17.370;2023-12-22T08:06:48;8.90;;;2.60;;
34695;SDS011;20918;51.138;17.370;2023-12-22T08:09:52;9.70;;;2.70;;
34695;SDS011;20918;51.138;17.370;2023-12-22T08:15:53;11.40;;;3.40;;
34695;SDS011;20918;51.138;17.370;2023-12-22T08:18:54;8.70;;;2.80;;
34695;SDS011;20918;51.138;17.370;2023-12-22T08:24:59;10.10;;;2.60;;
34695;SDS011;20918;51.138;17.370;2023-12-22T08:28:00;11.10;;;2.70;;
34695;SDS011;20918;51.138;17.370;2023-12-22T08:31:01;5.90;;;2.10;;
34695;SDS011;20918;51.138;17.370;2023-12-22T08:34:04;8.00;;;2.40;;
34695;SDS011;20918;51.138;17.370;2023-12-22T08:37:05;13.00;;;2.10;;
34695;SDS011;20918;51.138;17.370;2023-12-22T08:40:06;6.80;;;2.20;;
34695;SDS011;20918;51.138;17.370;2023-12-22T08:43:07;6.70;;;2.20;;
34695;SDS011;20918;51.138;17.370;2023-12-22T08:46:17;9.00;;;2.50;;
34695;SDS011;20918;51.138;17.370;2023-12-22T08:49:21;6.60;;;2.10;;
34695;SDS011;20918;51.138;17.370;2023-12-22T08:52:22;9.90;;;2.30;;
34695;SDS011;20918;51.138;17.370;2023-12-22T08:55:23;10.60;;;2.90;;
34695;SDS011;20918;51.138;17.370;2023-12-22T08:58:23;8.60;;;2.20;;
34695;SDS011;20918;51.138;17.370;2023-12-22T09:01:27;5.70;;;2.20;;
34695;SDS011;20918;51.138;17.370;2023-12-22T09:04:28;6.60;;;2.60;;
34695;SDS011;20918;51.138;17.370;2023-12-22T09:11:57;5.50;;;2.30;;
34695;SDS011;20918;51.138;17.370;2023-12-22T09:19:20;13.20;;;2.80;;
34695;SDS011;20918;51.138;17.370;2023-12-22T09:22:24;12.70;;;2.90;;
34695;SDS011;20918;51.138;17.370;2023-12-22T09:25:25;10.90;;;2.60;;
34695;SDS011;20918;51.138;17.370;2023-12-22T09:28:31;15.80;;;3.70;;
34695;SDS011;20918;51.138;17.370;2023-12-22T09:34:42;7.50;;;2.90;;
34695;SDS011;20918;51.138;17.370;2023-12-22T09:37:43;10.90;;;2.80;;
34695;SDS011;20918;51.138;17.370;2023-12-22T09:40:47;5.20;;;2.20;;
34695;SDS011;20918;51.138;17.370;2023-12-22T09:43:52;3.60;;;1.70;;
34695;SDS011;20918;51.138;17.370;2023-12-22T09:46:57;6.10;;;1.90;;
34695;SDS011;20918;51.138;17.370;2023-12-22T09:50:04;3.90;;;1.70;;
34695;SDS011;20918;51.138;17.370;2023-12-22T09:53:06;2.70;;;1.20;;
34695;SDS011;20918;51.138;17.370;2023-12-22T09:56:08;4.40;;;1.50;;
34695;SDS011;20918;51.138;17.370;2023-12-22T09:59:10;6.60;;;2.00;;
34695;SDS011;20918;51.138;17.370;2023-12-22T10:02:13;5.10;;;2.00;;
34695;SDS011;20918;51.138;17.370;2023-12-22T10:08:40;5.60;;;2.00;;
34695;SDS011;20918;51.138;17.370;2023-12-22T10:11:43;4.70;;;1.70;;
34695;SDS011;20918;51.138;17.370;2023-12-22T10:14:51;5.40;;;2.20;;
34695;SDS011;20918;51.138;17.370;2023-12-22T10:17:54;13.60;;;2.30;;
34695;SDS011;20918;51.138;17.370;2023-12-22T10:20:58;5.70;;;2.40;;
34695;SDS011;20918;51.138;17.370;2023-12-22T10:24:01;7.10;;;2.10;;
34695;SDS011;20918;51.138;17.370;2023-12-22T10:30:03;6.70;;;2.20;;
34695;SDS011;20918;51.138;17.370;2023-12-22T10:33:04;8.40;;;2.10;;
34695;SDS011;20918;51.138;17.370;2023-12-22T10:36:07;8.20;;;2.40;;
34695;SDS011;20918;51.138;17.370;2023-12-22T10:39:08;13.30;;;2.50;;
34695;SDS011;20918;51.138;17.370;2023-12-22T10:42:10;10.60;;;1.80;;
34695;SDS011;20918;51.138;17.370;2023-12-22T10:51:12;9.60;;;2.70;;
34695;SDS011;20918;51.138;17.370;2023-12-22T10:54:31;10.30;;;2.10;;
34695;SDS011;20918;51.138;17.370;2023-12-22T10:57:34;6.20;;;1.90;;
34695;SDS011;20918;51.138;17.370;2023-12-22T11:00:38;8.10;;;2.20;;
34695;SDS011;20918;51.138;17.370;2023-12-22T11:03:44;7.20;;;2.20;;
34695;SDS011;20918;51.138;17.370;2023-12-22T11:06:49;13.60;;;2.90;;
34695;SDS011;20918;51.138;17.370;2023-12-22T11:10:12;5.80;;;2.30;;
34695;SDS011;20918;51.138;17.370;2023-12-22T11:13:14;5.30;;;1.50;;
34695;SDS011;20918;51.138;17.370;2023-12-22T11:16:16;6.50;;;1.80;;
34695;SDS011;20918;51.138;17.370;2023-12-22T11:19:18;7.00;;;2.00;;
34695;SDS011;20918;51.138;17.370;2023-12-22T11:22:21;4.80;;;1.80;;
34695;SDS011;20918;51.138;17.370;2023-12-22T11:25:22;4.70;;;1.60;;
34695;SDS011;20918;51.138;17.370;2023-12-22T11:28:25;3.30;;;1.30;;
34695;SDS011;20918;51.138;17.370;2023-12-22T11:31:27;5.10;;;2.10;;
34695;SDS011;20918;51.138;17.370;2023-12-22T11:34:28;3.50;;;1.80;;
34695;SDS011;20918;51.138;17.370;2023-12-22T11:37:29;5.10;;;1.40;;
34695;SDS011;20918;51.138;17.370;2023-12-22T11:40:31;5.20;;;1.60;;
34695;SDS011;20918;51.138;17.370;2023-12-22T11:46:34;6.60;;;1.50;;
34695;SDS011;20918;51.138;17.370;2023-12-22T11:49:40;3.80;;;1.60;;
34695;SDS011;20918;51.138;17.370;2023-12-22T11:52:41;4.40;;;1.50;;
34695;SDS011;20918;51.138;17.370;2023-12-22T11:59:05;8.20;;;2.90;;
34695;SDS011;20918;51.138;17.370;2023-12-22T12:02:07;9.60;;;2.80;;
34695;SDS011;20918;51.138;17.370;2023-12-22T12:05:09;7.80;;;2.50;;
34695;SDS011;20918;51.138;17.370;2023-12-22T12:08:13;4.20;;;2.40;;
34695;SDS011;20918;51.138;17.370;2023-12-22T12:11:14;8.00;;;2.60;;
34695;SDS011;20918;51.138;17.370;2023-12-22T12:14:22;5.40;;;1.80;;
34695;SDS011;20918;51.138;17.370;2023-12-22T12:17:41;5.20;;;2.10;;
34695;SDS011;20918;51.138;17.370;2023-12-22T12:20:45;7.60;;;1.60;;
34695;SDS011;20918;51.138;17.370;2023-12-22T12:23:47;6.60;;;1.90;;
34695;SDS011;20918;51.138;17.370;2023-12-22T12:26:48;8.60;;;1.90;;
34695;SDS011;20918;51.138;17.370;2023-12-22T12:29:50;7.60;;;2.00;;
34695;SDS011;20918;51.138;17.370;2023-12-22T12:32:51;3.40;;;1.50;;
34695;SDS011;20918;51.138;17.370;2023-12-22T12:35:53;8.30;;;2.40;;
34695;SDS011;20918;51.138;17.370;2023-12-22T12:38:59;5.10;;;1.60;;
34695;SDS011;20918;51.138;17.370;2023-12-22T12:42:41;6.50;;;1.50;;
34695;SDS011;20918;51.138;17.370;2023-12-22T12:45:51;6.70;;;2.20;;
34695;SDS011;20918;51.138;17.370;2023-12-22T12:49:02;2.40;;;1.50;;
34695;SDS011;20918;51.138;17.370;2023-12-22T12:52:11;5.50;;;1.80;;
34695;SDS011;20918;51.138;17.370;2023-12-22T12:55:13;5.80;;;2.10;;
34695;SDS011;20918;51.138;17.370;2023-12-22T12:58:17;11.30;;;2.10;;
34695;SDS011;20918;51.138;17.370;2023-12-22T13:01:19;7.40;;;2.40;;
34695;SDS011;20918;51.138;17.370;2023-12-22T13:04:19;10.90;;;2.10;;
34695;SDS011;20918;51.138;17.370;2023-12-22T13:07:24;10.50;;;1.80;;
34695;SDS011;20918;51.138;17.370;2023-12-22T13:10:26;8.20;;;1.80;;
34695;SDS011;20918;51.138;17.370;2023-12-22T13:13:28;9.70;;;2.20;;
34695;SDS011;20918;51.138;17.370;2023-12-22T13:16:29;7.10;;;1.90;;
34695;SDS011;20918;51.138;17.370;2023-12-22T13:19:30;9.80;;;2.10;;
34695;SDS011;20918;51.138;17.370;2023-12-22T13:22:51;6.50;;;2.00;;
34695;SDS011;20918;51.138;17.370;2023-12-22T13:25:52;9.90;;;2.20;;
34695;SDS011;20918;51.138;17.370;2023-12-22T13:29:19;8.30;;;2.20;;
34695;SDS011;20918;51.138;17.370;2023-12-22T13:32:31;6.30;;;2.10;;
34695;SDS011;20918;51.138;17.370;2023-12-22T13:35:32;10.70;;;2.00;;
34695;SDS011;20918;51.138;17.370;2023-12-22T13:38:39;8.10;;;2.20;;
34695;SDS011;20918;51.138;17.370;2023-12-22T13:41:45;5.80;;;2.10;;
34695;SDS011;20918;51.138;17.370;2023-12-22T13:44:47;13.40;;;3.10;;
34695;SDS011;20918;51.138;17.370;2023-12-22T13:47:49;7.60;;;2.00;;
34695;SDS011;20918;51.138;17.370;2023-12-22T13:50:57;15.90;;;2.50;;
34695;SDS011;20918;51.138;17.370;2023-12-22T13:53:59;7.40;;;2.50;;
34695;SDS011;20918;51.138;17.370;2023-12-22T13:57:00;8.90;;;2.30;;
34695;SDS011;20918;51.138;17.370;2023-12-22T14:00:02;6.00;;;2.10;;
34695;SDS011;20918;51.138;17.370;2023-12-22T14:03:23;16.60;;;2.60;;
34695;SDS011;20918;51.138;17.370;2023-12-22T14:06:27;12.70;;;2.60;;
34695;SDS011;20918;51.138;17.370;2023-12-22T14:09:29;7.40;;;2.00;;
34695;SDS011;20918;51.138;17.370;2023-12-22T14:12:33;9.30;;;2.40;;
34695;SDS011;20918;51.138;17.370;2023-12-22T14:18:36;5.30;;;2.10;;
34695;SDS011;20918;51.138;17.370;2023-12-22T14:21:37;9.50;;;2.30;;
34695;SDS011;20918;51.138;17.370;2023-12-22T14:24:38;10.90;;;2.80;;
34695;SDS011;20918;51.138;17.370;2023-12-22T14:27:41;7.70;;;1.80;;
34695;SDS011;20918;51.138;17.370;2023-12-22T14:30:51;4.50;;;2.00;;
34695;SDS011;20918;51.138;17.370;2023-12-22T14:33:51;5.40;;;1.80;;
34695;SDS011;20918;51.138;17.370;2023-12-22T14:36:52;9.00;;;2.50;;
34695;SDS011;20918;51.138;17.370;2023-12-22T14:39:53;10.50;;;2.60;;
34695;SDS011;20918;51.138;17.370;2023-12-22T14:42:57;7.10;;;1.80;;
34695;SDS011;20918;51.138;17.370;2023-12-22T14:45:59;6.40;;;2.00;;
34695;SDS011;20918;51.138;17.370;2023-12-22T14:49:03;7.00;;;2.10;;
34695;SDS011;20918;51.138;17.370;2023-12-22T14:52:04;6.60;;;2.50;;
34695;SDS011;20918;51.138;17.370;2023-12-22T14:55:05;8.10;;;2.50;;
34695;SDS011;20918;51.138;17.370;2023-12-22T14:58:06;13.80;;;2.60;;
34695;SDS011;20918;51.138;17.370;2023-12-22T15:01:24;8.40;;;2.10;;
34695;SDS011;20918;51.138;17.370;2023-12-22T15:04:27;7.00;;;2.90;;
34695;SDS011;20918;51.138;17.370;2023-12-22T15:07:28;10.70;;;3.70;;
34695;SDS011;20918;51.138;17.370;2023-12-22T15:10:29;10.70;;;2.80;;
34695;SDS011;20918;51.138;17.370;2023-12-22T15:13:30;8.70;;;3.30;;
34695;SDS011;20918;51.138;17.370;2023-12-22T15:16:39;8.30;;;3.20;;
34695;SDS011;20918;51.138;17.370;2023-12-22T15:19:45;8.00;;;2.80;;
34695;SDS011;20918;51.138;17.370;2023-12-22T15:22:51;10.10;;;4.00;;
34695;SDS011;20918;51.138;17.370;2023-12-22T15:25:53;8.00;;;2.80;;
34695;SDS011;20918;51.138;17.370;2023-12-22T15:28:53;8.10;;;2.50;;
34695;SDS011;20918;51.138;17.370;2023-12-22T15:31:56;8.10;;;2.70;;
34695;SDS011;20918;51.138;17.370;2023-12-22T15:35:03;4.70;;;2.00;;
34695;SDS011;20918;51.138;17.370;2023-12-22T15:38:06;11.40;;;3.20;;
34695;SDS011;20918;51.138;17.370;2023-12-22T15:44:11;7.50;;;3.00;;
34695;SDS011;20918;51.138;17.370;2023-12-22T15:50:12;11.60;;;2.30;;
34695;SDS011;20918;51.138;17.370;2023-12-22T15:53:13;10.20;;;3.60;;
34695;SDS011;20918;51.138;17.370;2023-12-22T15:56:16;7.80;;;2.40;;
34695;SDS011;20918;51.138;17.370;2023-12-22T15:59:18;8.40;;;2.60;;
34695;SDS011;20918;51.138;17.370;2023-12-22T16:02:27;7.50;;;2.40;;
34695;SDS011;20918;51.138;17.370;2023-12-22T16:05:28;5.00;;;1.80;;
34695;SDS011;20918;51.138;17.370;2023-12-22T16:08:32;6.70;;;2.30;;
34695;SDS011;20918;51.138;17.370;2023-12-22T16:11:35;7.60;;;2.40;;
34695;SDS011;20918;51.138;17.370;2023-12-22T16:14:36;12.30;;;3.20;;
34695;SDS011;20918;51.138;17.370;2023-12-22T16:20:38;5.70;;;1.70;;
34695;SDS011;20918;51.138;17.370;2023-12-22T16:23:42;8.90;;;2.60;;
34695;SDS011;20918;51.138;17.370;2023-12-22T16:26:42;8.90;;;2.70;;
34695;SDS011;20918;51.138;17.370;2023-12-22T16:29:43;12.60;;;3.20;;
34695;SDS011;20918;51.138;17.370;2023-12-22T16:32:50;11.20;;;3.10;;
34695;SDS011;20918;51.138;17.370;2023-12-22T16:35:50;12.50;;;3.30;;
34695;SDS011;20918;51.138;17.370;2023-12-22T16:38:54;9.60;;;3.30;;
34695;SDS011;20918;51.138;17.370;2023-12-22T16:41:54;13.30;;;3.00;;
34695;SDS011;20918;51.138;17.370;2023-12-22T16:44:56;11.50;;;2.90;;
34695;SDS011;20918;51.138;17.370;2023-12-22T16:47:59;10.60;;;3.90;;
34695;SDS011;20918;51.138;17.370;2023-12-22T16:51:01;18.10;;;6.30;;
34695;SDS011;20918;51.138;17.370;2023-12-22T16:57:03;11.60;;;2.80;;
34695;SDS011;20918;51.138;17.370;2023-12-22T17:00:04;7.10;;;2.70;;
34695;SDS011;20918;51.138;17.370;2023-12-22T17:03:05;11.40;;;2.50;;
34695;SDS011;20918;51.138;17.370;2023-12-22T17:06:14;6.70;;;2.50;;
34695;SDS011;20918;51.138;17.370;2023-12-22T17:09:15;9.10;;;2.80;;
34695;SDS011;20918;51.138;17.370;2023-12-22T17:15:16;9.00;;;3.00;;
34695;SDS011;20918;51.138;17.370;2023-12-22T17:18:17;15.60;;;3.20;;
34695;SDS011;20918;51.138;17.370;2023-12-22T17:21:22;12.70;;;3.90;;
34695;SDS011;20918;51.138;17.370;2023-12-22T17:24:23;9.20;;;2.90;;
34695;SDS011;20918;51.138;17.370;2023-12-22T17:27:24;9.10;;;2.70;;
34695;SDS011;20918;51.138;17.370;2023-12-22T17:30:25;10.80;;;2.80;;
34695;SDS011;20918;51.138;17.370;2023-12-22T17:33:27;12.80;;;2.80;;
34695;SDS011;20918;51.138;17.370;2023-12-22T17:36:28;12.80;;;2.80;;
34695;SDS011;20918;51.138;17.370;2023-12-22T17:39:35;10.10;;;3.10;;
34695;SDS011;20918;51.138;17.370;2023-12-22T17:42:36;11.40;;;3.00;;
34695;SDS011;20918;51.138;17.370;2023-12-22T17:45:38;7.80;;;3.00;;
34695;SDS011;20918;51.138;17.370;2023-12-22T17:48:39;10.60;;;3.60;;
34695;SDS011;20918;51.138;17.370;2023-12-22T17:54:40;11.70;;;3.50;;
34695;SDS011;20918;51.138;17.370;2023-12-22T18:00:59;13.10;;;3.30;;
34695;SDS011;20918;51.138;17.370;2023-12-22T18:04:01;12.10;;;3.10;;
34695;SDS011;20918;51.138;17.370;2023-12-22T18:07:03;11.10;;;3.80;;
34695;SDS011;20918;51.138;17.370;2023-12-22T18:10:47;11.40;;;3.40;;
34695;SDS011;20918;51.138;17.370;2023-12-22T18:13:53;10.80;;;2.80;;
34695;SDS011;20918;51.138;17.370;2023-12-22T18:16:55;9.30;;;3.00;;
34695;SDS011;20918;51.138;17.370;2023-12-22T18:19:56;11.20;;;2.90;;
34695;SDS011;20918;51.138;17.370;2023-12-22T18:23:00;9.10;;;3.60;;
34695;SDS011;20918;51.138;17.370;2023-12-22T18:26:08;10.90;;;3.70;;
34695;SDS011;20918;51.138;17.370;2023-12-22T18:29:13;14.70;;;4.40;;
34695;SDS011;20918;51.138;17.370;2023-12-22T18:32:39;9.60;;;3.00;;
34695;SDS011;20918;51.138;17.370;2023-12-22T18:35:52;12.80;;;3.40;;
34695;SDS011;20918;51.138;17.370;2023-12-22T18:39:13;14.10;;;4.10;;
34695;SDS011;20918;51.138;17.370;2023-12-22T18:42:20;15.10;;;3.60;;
34695;SDS011;20918;51.138;17.370;2023-12-22T18:45:26;11.80;;;3.60;;
34695;SDS011;20918;51.138;17.370;2023-12-22T18:48:44;7.10;;;3.00;;
34695;SDS011;20918;51.138;17.370;2023-12-22T18:52:28;11.80;;;3.30;;
34695;SDS011;20918;51.138;17.370;2023-12-22T18:55:32;19.30;;;4.90;;
34695;SDS011;20918;51.138;17.370;2023-12-22T18:58:35;13.50;;;3.90;;
34695;SDS011;20918;51.138;17.370;2023-12-22T19:01:49;12.30;;;3.80;;
34695;SDS011;20918;51.138;17.370;2023-12-22T19:05:07;13.90;;;4.10;;
34695;SDS011;20918;51.138;17.370;2023-12-22T19:08:19;11.30;;;4.60;;
34695;SDS011;20918;51.138;17.370;2023-12-22T19:11:20;11.50;;;4.00;;
34695;SDS011;20918;51.138;17.370;2023-12-22T19:18:01;17.30;;;3.40;;
34695;SDS011;20918;51.138;17.370;2023-12-22T19:21:03;13.10;;;5.40;;
34695;SDS011;20918;51.138;17.370;2023-12-22T19:24:06;15.00;;;3.80;;
34695;SDS011;20918;51.138;17.370;2023-12-22T19:27:10;12.90;;;4.40;;
34695;SDS011;20918;51.138;17.370;2023-12-22T19:30:21;8.60;;;3.20;;
34695;SDS011;20918;51.138;17.370;2023-12-22T19:36:23;8.60;;;3.00;;
34695;SDS011;20918;51.138;17.370;2023-12-22T19:42:25;11.50;;;3.00;;
34695;SDS011;20918;51.138;17.370;2023-12-22T19:45:29;9.80;;;3.40;;
34695;SDS011;20918;51.138;17.370;2023-12-22T19:51:41;5.00;;;1.90;;
34695;SDS011;20918;51.138;17.370;2023-12-22T19:54:43;8.10;;;2.70;;
34695;SDS011;20918;51.138;17.370;2023-12-22T19:57:43;8.60;;;2.60;;
34695;SDS011;20918;51.138;17.370;2023-12-22T20:03:46;8.80;;;3.10;;
34695;SDS011;20918;51.138;17.370;2023-12-22T20:06:50;9.20;;;2.90;;
34695;SDS011;20918;51.138;17.370;2023-12-22T20:09:51;11.00;;;3.00;;
34695;SDS011;20918;51.138;17.370;2023-12-22T20:13:07;12.30;;;3.10;;
34695;SDS011;20918;51.138;17.370;2023-12-22T20:16:09;13.10;;;4.00;;
34695;SDS011;20918;51.138;17.370;2023-12-22T20:19:12;13.00;;;3.00;;
34695;SDS011;20918;51.138;17.370;2023-12-22T20:22:13;8.70;;;2.90;;
34695;SDS011;20918;51.138;17.370;2023-12-22T20:25:14;8.60;;;2.90;;
34695;SDS011;20918;51.138;17.370;2023-12-22T20:28:15;7.50;;;2.90;;
34695;SDS011;20918;51.138;17.370;2023-12-22T20:31:17;6.80;;;2.90;;